This is the latest recevied weather packets stored in our database for station/object TG9ADI-20. If no packets are shown the sender has not sent any weather packets the latest 10 day(s).
| Time | Temp. | Humidity | Pressure | Rain* | Wind** | Luminosity | Snow |
|---|---|---|---|---|---|---|---|
| 1778241422 | 17.78° C | 98% | 1015 hPa | 0 mm | - | - | - |
| 1778240821 | 18.89° C | 96% | 1015 hPa | 0 mm | - | - | - |
| 1778240221 | 18.89° C | 97% | 1015 hPa | 0 mm | - | - | - |
| 1778239620 | 19.44° C | 94% | 1013 hPa | 0 mm | - | - | - |
| 1778239020 | 16.11° C | 96% | 1013 hPa | 0 mm | - | - | - |
| 1778238419 | 16.67° C | 96% | 1013 hPa | 0 mm | - | - | - |
| 1778237819 | 17.78° C | 95% | 1013 hPa | 0 mm | - | - | - |
| 1778237218 | 19.44° C | 88% | 1013 hPa | 0 mm | - | - | - |
| 1778236617 | 19.44° C | 88% | 1013 hPa | 0 mm | - | - | - |
| 1778236017 | 16.11° C | 10% | - | 0 mm | - | - | - |
| 1778235416 | 16.11° C | 10% | - | 0 mm | - | - | - |
| 1778234816 | 16.67° C | 10% | - | 0 mm | - | - | - |
| 1778234215 | 17.78° C | 10% | - | 0 mm | - | - | - |
| 1778233614 | 16.67° C | 97% | 1013 hPa | 0 mm | - | - | - |
| 1778233009 | 16.67° C | 96% | 1013 hPa | 0 mm | - | - | - |
| 1778232408 | 17.22° C | 96% | 1012 hPa | 0 mm | - | - | - |
| 1778231808 | 17.22° C | 96% | 1013 hPa | 0 mm | - | - | - |
| 1778231207 | 17.78° C | 95% | 1013 hPa | 0 mm | - | - | - |
| 1778230606 | 18.89° C | 92% | 1013 hPa | 0 mm | - | - | - |
| 1778230006 | 18.89° C | 93% | 1013 hPa | 0 mm | - | - | - |
| 1778229405 | 17.78° C | 95% | 1013 hPa | 0 mm | - | - | - |
| 1778228804 | 18.89° C | 92% | 1013 hPa | 0 mm | - | - | - |
| 1778228198 | 18.89° C | 93% | 1013 hPa | 0 mm | - | - | - |
| 1778228139 | 18.89° C | 92% | 1013 hPa | 0 mm | - | - | - |
| 1778227538 | 18.89° C | 92% | 1013 hPa | 0 mm | - | - | - |
* Rain latest hour (hover to see other rain measurements)
** Current wind speed in m/s (hover to see current wind gust speed)